sensor_id;sensor_type;location;lat;lon;timestamp;temperature;humidity
7163;DHT22;3623;47.098;15.446;2022-07-03T00:00:33;17.80;99.90
7163;DHT22;3623;47.098;15.446;2022-07-03T00:03:02;17.80;99.90
7163;DHT22;3623;47.098;15.446;2022-07-03T00:05:29;17.80;99.90
7163;DHT22;3623;47.098;15.446;2022-07-03T00:07:57;17.80;99.90
7163;DHT22;3623;47.098;15.446;2022-07-03T00:10:25;17.80;99.90
7163;DHT22;3623;47.098;15.446;2022-07-03T00:12:52;17.90;99.90
7163;DHT22;3623;47.098;15.446;2022-07-03T00:15:19;17.90;99.90
7163;DHT22;3623;47.098;15.446;2022-07-03T00:17:47;17.90;99.90
7163;DHT22;3623;47.098;15.446;2022-07-03T00:20:19;17.90;99.90
7163;DHT22;3623;47.098;15.446;2022-07-03T00:22:47;17.90;99.90
7163;DHT22;3623;47.098;15.446;2022-07-03T00:25:16;17.80;99.90
7163;DHT22;3623;47.098;15.446;2022-07-03T00:27:44;17.70;99.90
7163;DHT22;3623;47.098;15.446;2022-07-03T00:30:12;17.70;99.90
7163;DHT22;3623;47.098;15.446;2022-07-03T00:32:41;17.70;99.90
7163;DHT22;3623;47.098;15.446;2022-07-03T00:35:09;17.70;99.90
7163;DHT22;3623;47.098;15.446;2022-07-03T00:37:39;17.70;99.90
7163;DHT22;3623;47.098;15.446;2022-07-03T00:40:08;17.60;99.90
7163;DHT22;3623;47.098;15.446;2022-07-03T00:42:37;17.60;99.90
7163;DHT22;3623;47.098;15.446;2022-07-03T00:45:08;17.60;99.90
7163;DHT22;3623;47.098;15.446;2022-07-03T00:47:36;17.50;99.90
7163;DHT22;3623;47.098;15.446;2022-07-03T00:50:06;17.50;99.90
7163;DHT22;3623;47.098;15.446;2022-07-03T00:52:36;17.40;99.90
7163;DHT22;3623;47.098;15.446;2022-07-03T00:55:08;17.20;99.90
7163;DHT22;3623;47.098;15.446;2022-07-03T00:57:35;17.20;99.90
7163;DHT22;3623;47.098;15.446;2022-07-03T01:00:09;17.20;99.90
7163;DHT22;3623;47.098;15.446;2022-07-03T01:02:50;17.20;99.90
7163;DHT22;3623;47.098;15.446;2022-07-03T01:05:26;17.20;99.90
7163;DHT22;3623;47.098;15.446;2022-07-03T01:08:04;17.20;99.90
7163;DHT22;3623;47.098;15.446;2022-07-03T01:10:43;17.10;99.90
7163;DHT22;3623;47.098;15.446;2022-07-03T01:13:17;17.10;99.90
7163;DHT22;3623;47.098;15.446;2022-07-03T01:15:52;17.00;99.90
7163;DHT22;3623;47.098;15.446;2022-07-03T01:18:30;17.00;99.90
7163;DHT22;3623;47.098;15.446;2022-07-03T01:21:05;17.00;99.90
7163;DHT22;3623;47.098;15.446;2022-07-03T01:23:56;16.90;99.90
7163;DHT22;3623;47.098;15.446;2022-07-03T01:26:35;17.00;99.90
7163;DHT22;3623;47.098;15.446;2022-07-03T01:29:08;17.00;99.90
7163;DHT22;3623;47.098;15.446;2022-07-03T01:31:40;17.00;99.90
7163;DHT22;3623;47.098;15.446;2022-07-03T01:34:12;17.00;99.90
7163;DHT22;3623;47.098;15.446;2022-07-03T01:36:41;17.00;99.90
7163;DHT22;3623;47.098;15.446;2022-07-03T01:39:10;17.00;99.90
7163;DHT22;3623;47.098;15.446;2022-07-03T01:41:39;17.00;99.90
7163;DHT22;3623;47.098;15.446;2022-07-03T01:44:07;17.00;99.90
7163;DHT22;3623;47.098;15.446;2022-07-03T01:46:37;17.00;99.90
7163;DHT22;3623;47.098;15.446;2022-07-03T01:49:06;16.90;99.90
7163;DHT22;3623;47.098;15.446;2022-07-03T01:51:35;16.90;99.90
7163;DHT22;3623;47.098;15.446;2022-07-03T01:54:05;16.90;99.90
7163;DHT22;3623;47.098;15.446;2022-07-03T01:56:33;16.90;99.90
7163;DHT22;3623;47.098;15.446;2022-07-03T01:59:06;16.80;99.90
7163;DHT22;3623;47.098;15.446;2022-07-03T02:01:40;16.80;99.90
7163;DHT22;3623;47.098;15.446;2022-07-03T02:04:14;16.70;99.90
7163;DHT22;3623;47.098;15.446;2022-07-03T02:06:49;16.60;99.90
7163;DHT22;3623;47.098;15.446;2022-07-03T02:09:24;16.50;99.90
7163;DHT22;3623;47.098;15.446;2022-07-03T02:11:54;16.40;99.90
7163;DHT22;3623;47.098;15.446;2022-07-03T02:14:25;16.40;99.90
7163;DHT22;3623;47.098;15.446;2022-07-03T02:17:03;16.40;99.90
7163;DHT22;3623;47.098;15.446;2022-07-03T02:19:39;16.40;99.90
7163;DHT22;3623;47.098;15.446;2022-07-03T02:22:11;16.40;99.90
7163;DHT22;3623;47.098;15.446;2022-07-03T02:24:43;16.30;99.90
7163;DHT22;3623;47.098;15.446;2022-07-03T02:27:16;16.30;99.90
7163;DHT22;3623;47.098;15.446;2022-07-03T02:29:47;16.30;99.90
7163;DHT22;3623;47.098;15.446;2022-07-03T02:32:19;16.20;99.90
7163;DHT22;3623;47.098;15.446;2022-07-03T02:34:52;16.30;99.90
7163;DHT22;3623;47.098;15.446;2022-07-03T02:37:22;16.20;99.90
7163;DHT22;3623;47.098;15.446;2022-07-03T02:39:51;16.20;99.90
7163;DHT22;3623;47.098;15.446;2022-07-03T02:42:29;16.10;99.90
7163;DHT22;3623;47.098;15.446;2022-07-03T02:45:01;16.10;99.90
7163;DHT22;3623;47.098;15.446;2022-07-03T02:47:35;16.10;99.90
7163;DHT22;3623;47.098;15.446;2022-07-03T02:50:05;16.00;99.90
7163;DHT22;3623;47.098;15.446;2022-07-03T02:52:52;16.00;99.90
7163;DHT22;3623;47.098;15.446;2022-07-03T02:55:40;16.00;99.90
7163;DHT22;3623;47.098;15.446;2022-07-03T02:58:33;16.00;99.90
7163;DHT22;3623;47.098;15.446;2022-07-03T03:01:09;16.10;99.90
7163;DHT22;3623;47.098;15.446;2022-07-03T03:03:44;16.10;99.90
7163;DHT22;3623;47.098;15.446;2022-07-03T03:06:14;16.00;99.90
7163;DHT22;3623;47.098;15.446;2022-07-03T03:08:45;16.00;99.90
7163;DHT22;3623;47.098;15.446;2022-07-03T03:11:24;16.00;99.90
7163;DHT22;3623;47.098;15.446;2022-07-03T03:13:56;16.00;99.90
7163;DHT22;3623;47.098;15.446;2022-07-03T03:16:26;16.00;99.90
7163;DHT22;3623;47.098;15.446;2022-07-03T03:18:53;15.90;99.90
7163;DHT22;3623;47.098;15.446;2022-07-03T03:21:23;15.90;99.90
7163;DHT22;3623;47.098;15.446;2022-07-03T03:23:53;15.90;99.90
7163;DHT22;3623;47.098;15.446;2022-07-03T03:26:21;15.90;99.90
7163;DHT22;3623;47.098;15.446;2022-07-03T03:28:50;15.90;99.90
7163;DHT22;3623;47.098;15.446;2022-07-03T03:31:18;15.90;99.90
7163;DHT22;3623;47.098;15.446;2022-07-03T03:33:49;15.90;99.90
7163;DHT22;3623;47.098;15.446;2022-07-03T03:36:18;16.00;99.90
7163;DHT22;3623;47.098;15.446;2022-07-03T03:38:46;15.90;99.90
7163;DHT22;3623;47.098;15.446;2022-07-03T03:41:14;15.90;99.90
7163;DHT22;3623;47.098;15.446;2022-07-03T03:43:41;16.00;99.90
7163;DHT22;3623;47.098;15.446;2022-07-03T03:46:08;16.00;99.90
7163;DHT22;3623;47.098;15.446;2022-07-03T03:48:35;16.00;99.90
7163;DHT22;3623;47.098;15.446;2022-07-03T03:51:05;16.00;99.90
7163;DHT22;3623;47.098;15.446;2022-07-03T03:53:33;16.00;99.90
7163;DHT22;3623;47.098;15.446;2022-07-03T03:56:02;16.00;99.90
7163;DHT22;3623;47.098;15.446;2022-07-03T03:58:33;16.00;99.90
7163;DHT22;3623;47.098;15.446;2022-07-03T04:01:03;16.10;99.90
7163;DHT22;3623;47.098;15.446;2022-07-03T04:03:31;16.10;99.90
7163;DHT22;3623;47.098;15.446;2022-07-03T04:05:58;16.10;99.90
7163;DHT22;3623;47.098;15.446;2022-07-03T04:08:28;16.10;99.90
7163;DHT22;3623;47.098;15.446;2022-07-03T04:10:55;16.10;99.90
7163;DHT22;3623;47.098;15.446;2022-07-03T04:13:23;16.20;99.90
7163;DHT22;3623;47.098;15.446;2022-07-03T04:15:51;16.20;99.90
7163;DHT22;3623;47.098;15.446;2022-07-03T04:18:19;16.20;99.90
7163;DHT22;3623;47.098;15.446;2022-07-03T04:20:47;16.20;99.90
7163;DHT22;3623;47.098;15.446;2022-07-03T04:23:14;16.30;99.90
7163;DHT22;3623;47.098;15.446;2022-07-03T04:25:43;16.30;99.90
7163;DHT22;3623;47.098;15.446;2022-07-03T04:28:10;16.40;99.90
7163;DHT22;3623;47.098;15.446;2022-07-03T04:30:37;16.40;99.90
7163;DHT22;3623;47.098;15.446;2022-07-03T04:33:05;16.40;99.90
7163;DHT22;3623;47.098;15.446;2022-07-03T04:35:32;16.50;99.90
7163;DHT22;3623;47.098;15.446;2022-07-03T04:37:59;16.50;99.90
7163;DHT22;3623;47.098;15.446;2022-07-03T04:40:28;16.60;99.90
7163;DHT22;3623;47.098;15.446;2022-07-03T04:42:57;16.60;99.90
7163;DHT22;3623;47.098;15.446;2022-07-03T04:45:25;16.70;99.90
7163;DHT22;3623;47.098;15.446;2022-07-03T04:47:52;16.80;99.90
7163;DHT22;3623;47.098;15.446;2022-07-03T04:50:20;16.80;99.90
7163;DHT22;3623;47.098;15.446;2022-07-03T04:52:48;16.90;99.90
7163;DHT22;3623;47.098;15.446;2022-07-03T04:55:15;17.00;99.90
7163;DHT22;3623;47.098;15.446;2022-07-03T04:57:42;17.00;99.90
7163;DHT22;3623;47.098;15.446;2022-07-03T05:00:12;17.00;99.90
7163;DHT22;3623;47.098;15.446;2022-07-03T05:02:39;17.00;99.90
7163;DHT22;3623;47.098;15.446;2022-07-03T05:05:07;17.10;99.90
7163;DHT22;3623;47.098;15.446;2022-07-03T05:07:34;17.10;99.90
7163;DHT22;3623;47.098;15.446;2022-07-03T05:10:02;17.20;99.90
7163;DHT22;3623;47.098;15.446;2022-07-03T05:12:29;17.30;99.90
7163;DHT22;3623;47.098;15.446;2022-07-03T05:14:56;17.30;99.90
7163;DHT22;3623;47.098;15.446;2022-07-03T05:17:25;17.40;99.90
7163;DHT22;3623;47.098;15.446;2022-07-03T05:19:53;17.40;99.90
7163;DHT22;3623;47.098;15.446;2022-07-03T05:22:40;17.40;99.90
7163;DHT22;3623;47.098;15.446;2022-07-03T05:25:08;17.40;99.90
7163;DHT22;3623;47.098;15.446;2022-07-03T05:27:36;17.50;99.90
7163;DHT22;3623;47.098;15.446;2022-07-03T05:30:04;17.60;99.90
7163;DHT22;3623;47.098;15.446;2022-07-03T05:32:33;17.60;99.90
7163;DHT22;3623;47.098;15.446;2022-07-03T05:35:00;17.60;99.90
7163;DHT22;3623;47.098;15.446;2022-07-03T05:37:27;17.70;99.90
7163;DHT22;3623;47.098;15.446;2022-07-03T05:39:56;17.70;99.90
7163;DHT22;3623;47.098;15.446;2022-07-03T05:42:22;17.80;99.90
7163;DHT22;3623;47.098;15.446;2022-07-03T05:44:50;17.90;99.90
7163;DHT22;3623;47.098;15.446;2022-07-03T05:47:17;18.00;99.90
7163;DHT22;3623;47.098;15.446;2022-07-03T05:49:49;18.10;99.90
7163;DHT22;3623;47.098;15.446;2022-07-03T05:52:17;18.10;99.90
7163;DHT22;3623;47.098;15.446;2022-07-03T05:54:44;18.20;99.90
7163;DHT22;3623;47.098;15.446;2022-07-03T05:57:11;18.20;99.90
7163;DHT22;3623;47.098;15.446;2022-07-03T05:59:38;18.20;99.90
7163;DHT22;3623;47.098;15.446;2022-07-03T06:02:06;18.40;99.90
7163;DHT22;3623;47.098;15.446;2022-07-03T06:04:33;18.50;99.90
7163;DHT22;3623;47.098;15.446;2022-07-03T06:07:03;18.60;99.90
7163;DHT22;3623;47.098;15.446;2022-07-03T06:09:30;18.70;99.90
7163;DHT22;3623;47.098;15.446;2022-07-03T06:11:57;18.90;99.90
7163;DHT22;3623;47.098;15.446;2022-07-03T06:14:24;19.10;99.90
7163;DHT22;3623;47.098;15.446;2022-07-03T06:16:51;19.20;99.90
7163;DHT22;3623;47.098;15.446;2022-07-03T06:19:19;19.30;99.90
7163;DHT22;3623;47.098;15.446;2022-07-03T06:21:46;19.40;99.90
7163;DHT22;3623;47.098;15.446;2022-07-03T06:24:15;19.40;99.90
7163;DHT22;3623;47.098;15.446;2022-07-03T06:26:42;19.50;99.90
7163;DHT22;3623;47.098;15.446;2022-07-03T06:29:09;19.60;99.90
7163;DHT22;3623;47.098;15.446;2022-07-03T06:31:36;19.60;99.90
7163;DHT22;3623;47.098;15.446;2022-07-03T06:34:03;19.70;99.90
7163;DHT22;3623;47.098;15.446;2022-07-03T06:36:30;19.80;99.90
7163;DHT22;3623;47.098;15.446;2022-07-03T06:38:58;20.00;99.90
7163;DHT22;3623;47.098;15.446;2022-07-03T06:41:26;20.00;99.90
7163;DHT22;3623;47.098;15.446;2022-07-03T06:43:53;20.10;99.90
7163;DHT22;3623;47.098;15.446;2022-07-03T06:46:21;20.30;99.90
7163;DHT22;3623;47.098;15.446;2022-07-03T06:48:48;20.30;99.90
7163;DHT22;3623;47.098;15.446;2022-07-03T06:51:15;20.40;99.90
7163;DHT22;3623;47.098;15.446;2022-07-03T06:53:42;20.60;99.90
7163;DHT22;3623;47.098;15.446;2022-07-03T06:56:09;20.80;99.90
7163;DHT22;3623;47.098;15.446;2022-07-03T06:58:38;21.00;99.90
7163;DHT22;3623;47.098;15.446;2022-07-03T07:01:05;21.20;99.90
7163;DHT22;3623;47.098;15.446;2022-07-03T07:03:32;21.30;99.90
7163;DHT22;3623;47.098;15.446;2022-07-03T07:05:59;21.60;99.90
7163;DHT22;3623;47.098;15.446;2022-07-03T07:08:26;21.70;99.90
7163;DHT22;3623;47.098;15.446;2022-07-03T07:10:53;21.60;99.90
7163;DHT22;3623;47.098;15.446;2022-07-03T07:13:20;21.70;99.90
7163;DHT22;3623;47.098;15.446;2022-07-03T07:15:49;21.90;99.90
7163;DHT22;3623;47.098;15.446;2022-07-03T07:18:16;22.10;99.90
7163;DHT22;3623;47.098;15.446;2022-07-03T07:20:46;22.20;99.90
7163;DHT22;3623;47.098;15.446;2022-07-03T07:23:13;22.40;99.90
7163;DHT22;3623;47.098;15.446;2022-07-03T07:25:40;22.70;99.90
7163;DHT22;3623;47.098;15.446;2022-07-03T07:28:07;23.20;99.90
7163;DHT22;3623;47.098;15.446;2022-07-03T07:30:34;23.60;99.90
7163;DHT22;3623;47.098;15.446;2022-07-03T07:33:03;24.10;99.90
7163;DHT22;3623;47.098;15.446;2022-07-03T07:35:30;24.30;99.90
7163;DHT22;3623;47.098;15.446;2022-07-03T07:37:57;24.40;99.90
7163;DHT22;3623;47.098;15.446;2022-07-03T07:40:30;24.60;99.90
7163;DHT22;3623;47.098;15.446;2022-07-03T07:42:57;24.40;99.90
7163;DHT22;3623;47.098;15.446;2022-07-03T07:45:24;24.30;99.90
7163;DHT22;3623;47.098;15.446;2022-07-03T07:47:51;24.40;99.90
7163;DHT22;3623;47.098;15.446;2022-07-03T07:50:20;24.60;99.90
7163;DHT22;3623;47.098;15.446;2022-07-03T07:52:47;24.40;99.90
7163;DHT22;3623;47.098;15.446;2022-07-03T07:55:14;24.60;99.90
7163;DHT22;3623;47.098;15.446;2022-07-03T07:57:42;24.60;99.90
7163;DHT22;3623;47.098;15.446;2022-07-03T08:00:14;24.40;99.90
7163;DHT22;3623;47.098;15.446;2022-07-03T08:02:42;24.80;99.90
7163;DHT22;3623;47.098;15.446;2022-07-03T08:05:29;25.10;99.90
7163;DHT22;3623;47.098;15.446;2022-07-03T08:08:04;24.80;99.90
7163;DHT22;3623;47.098;15.446;2022-07-03T08:10:37;24.60;99.90
7163;DHT22;3623;47.098;15.446;2022-07-03T08:13:05;24.60;99.90
7163;DHT22;3623;47.098;15.446;2022-07-03T08:15:33;24.50;99.90
7163;DHT22;3623;47.098;15.446;2022-07-03T08:18:00;24.40;99.90
7163;DHT22;3623;47.098;15.446;2022-07-03T08:20:29;24.30;99.90
7163;DHT22;3623;47.098;15.446;2022-07-03T08:22:57;24.30;99.90
7163;DHT22;3623;47.098;15.446;2022-07-03T08:25:25;24.30;99.90
7163;DHT22;3623;47.098;15.446;2022-07-03T08:27:53;24.30;99.90
7163;DHT22;3623;47.098;15.446;2022-07-03T08:30:27;24.10;99.90
7163;DHT22;3623;47.098;15.446;2022-07-03T08:32:56;24.10;99.90
7163;DHT22;3623;47.098;15.446;2022-07-03T08:35:23;24.00;99.90
7163;DHT22;3623;47.098;15.446;2022-07-03T08:37:52;24.00;99.90
7163;DHT22;3623;47.098;15.446;2022-07-03T08:40:21;24.10;99.90
7163;DHT22;3623;47.098;15.446;2022-07-03T08:42:50;24.10;99.90
7163;DHT22;3623;47.098;15.446;2022-07-03T08:45:20;24.30;99.90
7163;DHT22;3623;47.098;15.446;2022-07-03T08:47:48;24.40;99.90
7163;DHT22;3623;47.098;15.446;2022-07-03T08:50:18;24.30;99.90
7163;DHT22;3623;47.098;15.446;2022-07-03T08:52:46;24.40;99.90
7163;DHT22;3623;47.098;15.446;2022-07-03T08:55:16;24.40;99.90
7163;DHT22;3623;47.098;15.446;2022-07-03T08:57:45;24.40;99.90
7163;DHT22;3623;47.098;15.446;2022-07-03T09:00:14;24.50;99.90
7163;DHT22;3623;47.098;15.446;2022-07-03T09:02:44;24.60;99.90
7163;DHT22;3623;47.098;15.446;2022-07-03T09:05:12;24.30;99.90
7163;DHT22;3623;47.098;15.446;2022-07-03T09:07:41;24.40;99.90
7163;DHT22;3623;47.098;15.446;2022-07-03T09:10:15;24.30;99.90
7163;DHT22;3623;47.098;15.446;2022-07-03T09:12:44;24.30;99.90
7163;DHT22;3623;47.098;15.446;2022-07-03T09:15:12;24.20;99.90
7163;DHT22;3623;47.098;15.446;2022-07-03T09:17:39;24.30;99.90
7163;DHT22;3623;47.098;15.446;2022-07-03T09:20:07;24.30;99.90
7163;DHT22;3623;47.098;15.446;2022-07-03T09:22:35;24.50;99.90
7163;DHT22;3623;47.098;15.446;2022-07-03T09:25:04;24.90;99.90
7163;DHT22;3623;47.098;15.446;2022-07-03T09:27:34;25.20;99.90
7163;DHT22;3623;47.098;15.446;2022-07-03T09:30:06;25.40;99.90
7163;DHT22;3623;47.098;15.446;2022-07-03T09:32:41;25.60;99.90
7163;DHT22;3623;47.098;15.446;2022-07-03T09:35:16;25.80;99.90
7163;DHT22;3623;47.098;15.446;2022-07-03T09:37:49;25.90;99.90
7163;DHT22;3623;47.098;15.446;2022-07-03T09:40:18;25.90;99.90
7163;DHT22;3623;47.098;15.446;2022-07-03T09:43:03;26.00;99.90
7163;DHT22;3623;47.098;15.446;2022-07-03T09:45:54;25.80;99.90
7163;DHT22;3623;47.098;15.446;2022-07-03T09:48:27;25.60;99.90
7163;DHT22;3623;47.098;15.446;2022-07-03T09:51:15;25.90;99.90
7163;DHT22;3623;47.098;15.446;2022-07-03T09:53:54;26.30;99.90
7163;DHT22;3623;47.098;15.446;2022-07-03T09:56:25;26.40;99.90
7163;DHT22;3623;47.098;15.446;2022-07-03T09:59:02;26.50;99.90
7163;DHT22;3623;47.098;15.446;2022-07-03T10:01:30;26.70;99.90
7163;DHT22;3623;47.098;15.446;2022-07-03T10:04:09;26.80;99.90
7163;DHT22;3623;47.098;15.446;2022-07-03T10:06:46;26.50;99.90
7163;DHT22;3623;47.098;15.446;2022-07-03T10:09:15;26.60;99.90
7163;DHT22;3623;47.098;15.446;2022-07-03T10:11:44;26.40;99.90
7163;DHT22;3623;47.098;15.446;2022-07-03T10:14:14;26.30;99.90
7163;DHT22;3623;47.098;15.446;2022-07-03T10:16:42;26.30;99.50
7163;DHT22;3623;47.098;15.446;2022-07-03T10:19:13;26.50;99.90
7163;DHT22;3623;47.098;15.446;2022-07-03T10:21:42;27.10;99.90
7163;DHT22;3623;47.098;15.446;2022-07-03T10:24:11;27.50;99.90
7163;DHT22;3623;47.098;15.446;2022-07-03T10:26:39;28.10;99.30
7163;DHT22;3623;47.098;15.446;2022-07-03T10:29:10;29.00;99.90
7163;DHT22;3623;47.098;15.446;2022-07-03T10:31:44;29.50;98.00
7163;DHT22;3623;47.098;15.446;2022-07-03T10:34:16;29.70;97.50
7163;DHT22;3623;47.098;15.446;2022-07-03T10:36:45;30.40;96.60
7163;DHT22;3623;47.098;15.446;2022-07-03T10:39:22;30.80;94.50
7163;DHT22;3623;47.098;15.446;2022-07-03T10:41:54;31.90;93.80
7163;DHT22;3623;47.098;15.446;2022-07-03T10:44:50;32.80;92.70
7163;DHT22;3623;47.098;15.446;2022-07-03T10:47:38;33.40;90.60
7163;DHT22;3623;47.098;15.446;2022-07-03T10:50:08;34.30;90.50
7163;DHT22;3623;47.098;15.446;2022-07-03T10:52:37;34.50;90.80
7163;DHT22;3623;47.098;15.446;2022-07-03T10:55:07;35.10;87.60
7163;DHT22;3623;47.098;15.446;2022-07-03T10:57:34;34.20;84.80
7163;DHT22;3623;47.098;15.446;2022-07-03T11:00:08;34.20;84.70
7163;DHT22;3623;47.098;15.446;2022-07-03T11:02:41;34.50;85.70
7163;DHT22;3623;47.098;15.446;2022-07-03T11:05:38;35.40;86.40
7163;DHT22;3623;47.098;15.446;2022-07-03T11:08:07;35.70;83.70
7163;DHT22;3623;47.098;15.446;2022-07-03T11:10:37;35.20;81.60
7163;DHT22;3623;47.098;15.446;2022-07-03T11:13:16;34.90;83.60
7163;DHT22;3623;47.098;15.446;2022-07-03T11:15:48;35.90;81.10
7163;DHT22;3623;47.098;15.446;2022-07-03T11:18:19;35.80;81.60
7163;DHT22;3623;47.098;15.446;2022-07-03T11:21:17;35.90;83.20
7163;DHT22;3623;47.098;15.446;2022-07-03T11:24:24;35.20;77.60
7163;DHT22;3623;47.098;15.446;2022-07-03T11:27:21;35.40;80.00
7163;DHT22;3623;47.098;15.446;2022-07-03T11:29:59;34.80;80.50
7163;DHT22;3623;47.098;15.446;2022-07-03T11:32:52;34.00;80.30
7163;DHT22;3623;47.098;15.446;2022-07-03T11:35:53;34.10;81.50
7163;DHT22;3623;47.098;15.446;2022-07-03T11:38:23;35.00;81.10
7163;DHT22;3623;47.098;15.446;2022-07-03T11:40:53;36.10;78.40
7163;DHT22;3623;47.098;15.446;2022-07-03T11:43:20;36.50;77.20
7163;DHT22;3623;47.098;15.446;2022-07-03T11:45:49;36.60;75.80
7163;DHT22;3623;47.098;15.446;2022-07-03T11:48:18;37.80;76.10
7163;DHT22;3623;47.098;15.446;2022-07-03T11:50:47;38.10;76.00
7163;DHT22;3623;47.098;15.446;2022-07-03T11:53:24;38.30;72.40
7163;DHT22;3623;47.098;15.446;2022-07-03T11:55:54;37.30;76.00
7163;DHT22;3623;47.098;15.446;2022-07-03T11:58:22;37.30;74.50
7163;DHT22;3623;47.098;15.446;2022-07-03T12:00:49;38.30;72.80
7163;DHT22;3623;47.098;15.446;2022-07-03T12:03:24;38.30;73.50
7163;DHT22;3623;47.098;15.446;2022-07-03T12:05:53;38.30;71.50
7163;DHT22;3623;47.098;15.446;2022-07-03T12:08:27;38.60;72.10
7163;DHT22;3623;47.098;15.446;2022-07-03T12:10:59;38.70;72.40
7163;DHT22;3623;47.098;15.446;2022-07-03T12:13:28;39.50;70.20
7163;DHT22;3623;47.098;15.446;2022-07-03T12:16:05;39.30;68.20
7163;DHT22;3623;47.098;15.446;2022-07-03T12:18:47;38.60;68.10
7163;DHT22;3623;47.098;15.446;2022-07-03T12:21:16;39.60;67.80
7163;DHT22;3623;47.098;15.446;2022-07-03T12:23:47;39.90;66.30
7163;DHT22;3623;47.098;15.446;2022-07-03T12:26:26;38.80;68.40
7163;DHT22;3623;47.098;15.446;2022-07-03T12:28:55;39.40;68.20
7163;DHT22;3623;47.098;15.446;2022-07-03T12:31:22;40.30;66.80
7163;DHT22;3623;47.098;15.446;2022-07-03T12:33:50;40.40;64.80
7163;DHT22;3623;47.098;15.446;2022-07-03T12:36:17;38.50;66.10
7163;DHT22;3623;47.098;15.446;2022-07-03T12:38:49;39.30;68.70
7163;DHT22;3623;47.098;15.446;2022-07-03T12:41:18;39.20;66.90
7163;DHT22;3623;47.098;15.446;2022-07-03T12:43:47;39.60;65.70
7163;DHT22;3623;47.098;15.446;2022-07-03T12:46:22;38.00;65.90
7163;DHT22;3623;47.098;15.446;2022-07-03T12:48:51;38.00;68.10
7163;DHT22;3623;47.098;15.446;2022-07-03T12:51:37;39.00;68.30
7163;DHT22;3623;47.098;15.446;2022-07-03T12:54:07;40.00;67.60
7163;DHT22;3623;47.098;15.446;2022-07-03T12:56:35;40.10;65.60
7163;DHT22;3623;47.098;15.446;2022-07-03T12:59:03;40.30;64.80
7163;DHT22;3623;47.098;15.446;2022-07-03T13:01:45;39.50;62.80
7163;DHT22;3623;47.098;15.446;2022-07-03T13:04:30;38.70;66.20
7163;DHT22;3623;47.098;15.446;2022-07-03T13:07:02;38.50;69.40
7163;DHT22;3623;47.098;15.446;2022-07-03T13:09:30;38.60;68.30
7163;DHT22;3623;47.098;15.446;2022-07-03T13:11:58;38.10;68.00
7163;DHT22;3623;47.098;15.446;2022-07-03T13:14:25;38.70;68.50
7163;DHT22;3623;47.098;15.446;2022-07-03T13:16:54;38.10;66.20
7163;DHT22;3623;47.098;15.446;2022-07-03T13:19:24;38.80;67.50
7163;DHT22;3623;47.098;15.446;2022-07-03T13:21:53;39.10;66.40
7163;DHT22;3623;47.098;15.446;2022-07-03T13:24:21;40.10;64.50
7163;DHT22;3623;47.098;15.446;2022-07-03T13:26:50;40.80;62.80
7163;DHT22;3623;47.098;15.446;2022-07-03T13:29:17;40.30;62.90
7163;DHT22;3623;47.098;15.446;2022-07-03T13:31:45;39.50;64.60
7163;DHT22;3623;47.098;15.446;2022-07-03T13:34:12;39.10;64.10
7163;DHT22;3623;47.098;15.446;2022-07-03T13:36:39;38.40;67.30
7163;DHT22;3623;47.098;15.446;2022-07-03T13:39:07;38.90;63.90
7163;DHT22;3623;47.098;15.446;2022-07-03T13:41:35;38.50;65.60
7163;DHT22;3623;47.098;15.446;2022-07-03T13:44:04;38.30;66.60
7163;DHT22;3623;47.098;15.446;2022-07-03T13:46:31;38.30;67.50
7163;DHT22;3623;47.098;15.446;2022-07-03T13:48:59;39.20;64.30
7163;DHT22;3623;47.098;15.446;2022-07-03T13:51:26;39.60;63.60
7163;DHT22;3623;47.098;15.446;2022-07-03T13:53:54;39.00;66.30
7163;DHT22;3623;47.098;15.446;2022-07-03T13:56:21;38.20;65.40
7163;DHT22;3623;47.098;15.446;2022-07-03T13:58:48;38.10;67.60
7163;DHT22;3623;47.098;15.446;2022-07-03T14:01:17;37.20;65.30
7163;DHT22;3623;47.098;15.446;2022-07-03T14:03:45;36.70;67.00
7163;DHT22;3623;47.098;15.446;2022-07-03T14:06:13;37.00;69.60
7163;DHT22;3623;47.098;15.446;2022-07-03T14:08:40;38.10;67.20
7163;DHT22;3623;47.098;15.446;2022-07-03T14:11:07;38.10;66.90
7163;DHT22;3623;47.098;15.446;2022-07-03T14:13:34;37.70;66.20
7163;DHT22;3623;47.098;15.446;2022-07-03T14:16:01;37.40;67.10
7163;DHT22;3623;47.098;15.446;2022-07-03T14:18:30;37.80;66.60
7163;DHT22;3623;47.098;15.446;2022-07-03T14:20:57;37.40;67.60
7163;DHT22;3623;47.098;15.446;2022-07-03T14:23:24;36.80;67.20
7163;DHT22;3623;47.098;15.446;2022-07-03T14:25:52;36.70;68.40
7163;DHT22;3623;47.098;15.446;2022-07-03T14:28:19;36.50;68.70
7163;DHT22;3623;47.098;15.446;2022-07-03T14:31:03;36.30;69.90
7163;DHT22;3623;47.098;15.446;2022-07-03T14:33:49;35.10;68.00
7163;DHT22;3623;47.098;15.446;2022-07-03T14:36:16;35.40;70.00
7163;DHT22;3623;47.098;15.446;2022-07-03T14:38:45;35.30;69.70
7163;DHT22;3623;47.098;15.446;2022-07-03T14:41:12;35.20;70.30
7163;DHT22;3623;47.098;15.446;2022-07-03T14:43:40;35.20;72.50
7163;DHT22;3623;47.098;15.446;2022-07-03T14:46:07;35.70;71.20
7163;DHT22;3623;47.098;15.446;2022-07-03T14:48:34;35.80;72.60
7163;DHT22;3623;47.098;15.446;2022-07-03T14:51:03;36.00;69.50
7163;DHT22;3623;47.098;15.446;2022-07-03T14:53:30;35.30;70.90
7163;DHT22;3623;47.098;15.446;2022-07-03T14:55:57;35.20;69.20
7163;DHT22;3623;47.098;15.446;2022-07-03T14:58:27;34.90;71.40
7163;DHT22;3623;47.098;15.446;2022-07-03T15:00:55;34.60;72.00
7163;DHT22;3623;47.098;15.446;2022-07-03T15:03:28;34.70;70.40
7163;DHT22;3623;47.098;15.446;2022-07-03T15:05:56;34.60;71.20
7163;DHT22;3623;47.098;15.446;2022-07-03T15:08:48;34.70;71.70
7163;DHT22;3623;47.098;15.446;2022-07-03T15:11:21;34.40;73.80
7163;DHT22;3623;47.098;15.446;2022-07-03T15:14:06;34.10;73.40
7163;DHT22;3623;47.098;15.446;2022-07-03T15:16:36;33.80;74.20
7163;DHT22;3623;47.098;15.446;2022-07-03T15:19:06;33.60;73.50
7163;DHT22;3623;47.098;15.446;2022-07-03T15:21:36;33.60;74.10
7163;DHT22;3623;47.098;15.446;2022-07-03T15:24:07;33.20;72.10
7163;DHT22;3623;47.098;15.446;2022-07-03T15:26:34;32.70;74.20
7163;DHT22;3623;47.098;15.446;2022-07-03T15:29:04;32.50;74.80
7163;DHT22;3623;47.098;15.446;2022-07-03T15:31:34;32.30;76.80
7163;DHT22;3623;47.098;15.446;2022-07-03T15:34:04;32.40;74.90
7163;DHT22;3623;47.098;15.446;2022-07-03T15:36:35;32.50;75.80
7163;DHT22;3623;47.098;15.446;2022-07-03T15:39:15;32.70;76.10
7163;DHT22;3623;47.098;15.446;2022-07-03T15:41:51;32.70;75.50
7163;DHT22;3623;47.098;15.446;2022-07-03T15:44:24;32.50;75.10
7163;DHT22;3623;47.098;15.446;2022-07-03T15:47:00;32.30;75.30
7163;DHT22;3623;47.098;15.446;2022-07-03T15:49:29;32.00;76.30
7163;DHT22;3623;47.098;15.446;2022-07-03T15:52:09;32.10;77.50
7163;DHT22;3623;47.098;15.446;2022-07-03T15:54:52;32.20;77.80
7163;DHT22;3623;47.098;15.446;2022-07-03T15:57:26;32.00;77.10
7163;DHT22;3623;47.098;15.446;2022-07-03T15:59:58;31.80;77.20
7163;DHT22;3623;47.098;15.446;2022-07-03T16:02:36;31.60;76.90
7163;DHT22;3623;47.098;15.446;2022-07-03T16:05:06;31.50;79.70
7163;DHT22;3623;47.098;15.446;2022-07-03T16:07:38;31.50;77.80